createdAt,value
2022-09-12T00:01:23.172Z,61.10
2022-09-12T00:03:59.404Z,61.20
2022-09-12T00:06:29.987Z,61.40
2022-09-12T00:09:01.755Z,61.30
2022-09-12T00:11:28.547Z,61.40
2022-09-12T00:14:02.589Z,61.50
2022-09-12T00:16:32.511Z,61.70
2022-09-12T00:19:00.782Z,61.70
2022-09-12T00:21:28.085Z,61.70
2022-09-12T00:23:55.352Z,61.70
2022-09-12T00:26:22.655Z,61.80
2022-09-12T00:28:50.121Z,61.80
2022-09-12T00:31:21.146Z,61.90
2022-09-12T00:33:48.299Z,61.90
2022-09-12T00:36:18.961Z,62.00
2022-09-12T00:38:47.530Z,62.20
2022-09-12T00:41:30.245Z,62.20
2022-09-12T00:44:01.666Z,62.50
2022-09-12T00:46:46.217Z,62.50
2022-09-12T00:49:18.667Z,62.60
2022-09-12T00:52:13.730Z,62.60
2022-09-12T00:55:06.176Z,62.70
2022-09-12T00:57:40.406Z,62.60
2022-09-12T01:00:17.812Z,62.70
2022-09-12T01:02:48.767Z,62.80
2022-09-12T01:05:16.352Z,62.80
2022-09-12T01:07:44.699Z,62.90
2022-09-12T01:10:11.790Z,62.90
2022-09-12T01:12:42.331Z,62.90
2022-09-12T01:15:10.683Z,63.00
2022-09-12T01:17:59.601Z,62.90
2022-09-12T01:21:04.327Z,63.10
2022-09-12T01:23:36.709Z,63.10
2022-09-12T01:26:30.942Z,63.10
2022-09-12T01:29:26.899Z,63.20
2022-09-12T01:32:15.297Z,63.30
2022-09-12T01:34:52.321Z,63.30
2022-09-12T01:37:32.483Z,63.40
2022-09-12T01:40:32.996Z,63.60
2022-09-12T01:43:08.150Z,63.70
2022-09-12T01:46:03.254Z,63.70
2022-09-12T01:48:52.516Z,63.80
2022-09-12T01:51:26.327Z,63.80
2022-09-12T01:54:00.809Z,63.80
2022-09-12T01:56:31.018Z,63.90
2022-09-12T01:59:25.154Z,63.90
2022-09-12T02:02:16.683Z,64.00
2022-09-12T02:04:52.692Z,63.90
2022-09-12T02:07:50.865Z,63.90
2022-09-12T02:10:32.702Z,63.90
2022-09-12T02:13:18.285Z,64.00
2022-09-12T02:15:50.607Z,64.10
2022-09-12T02:18:19.867Z,64.10
2022-09-12T02:20:49.182Z,64.10
2022-09-12T02:23:23.339Z,64.20
2022-09-12T02:25:54.567Z,64.20
2022-09-12T02:28:43.050Z,64.20
2022-09-12T02:31:31.732Z,64.20
2022-09-12T02:34:17.105Z,64.20
2022-09-12T02:37:16.260Z,64.30
2022-09-12T02:39:45.450Z,64.30
2022-09-12T02:42:13.310Z,64.30
2022-09-12T02:44:40.723Z,64.50
2022-09-12T02:47:15.075Z,64.60
2022-09-12T02:49:42.001Z,64.60
2022-09-12T02:52:09.341Z,64.70
2022-09-12T02:54:38.127Z,64.70
2022-09-12T02:57:19.489Z,64.90
2022-09-12T02:59:51.081Z,65.00
2022-09-12T03:02:23.914Z,64.90
2022-09-12T03:05:24.977Z,64.90
2022-09-12T03:08:17.260Z,65.00
2022-09-12T03:11:08.627Z,65.10
2022-09-12T03:13:54.129Z,65.30
2022-09-12T03:16:46.948Z,65.40
2022-09-12T03:19:41.142Z,65.50
2022-09-12T03:22:27.141Z,65.50
2022-09-12T03:25:16.528Z,65.60
2022-09-12T03:27:53.739Z,65.60
2022-09-12T03:30:20.684Z,65.50
2022-09-12T03:32:53.100Z,65.50
2022-09-12T03:35:23.327Z,65.60
2022-09-12T03:37:51.844Z,65.60
2022-09-12T03:40:19.627Z,65.60
2022-09-12T03:42:46.339Z,65.60
2022-09-12T03:45:13.770Z,65.60
2022-09-12T03:47:41.130Z,65.60
2022-09-12T03:50:08.731Z,65.70
2022-09-12T03:52:35.623Z,65.70
2022-09-12T03:55:02.575Z,65.70
2022-09-12T03:57:29.392Z,65.60
2022-09-12T03:59:56.332Z,65.70
2022-09-12T04:02:23.180Z,65.80
2022-09-12T04:04:50.498Z,65.80
2022-09-12T04:07:17.332Z,65.80
2022-09-12T04:09:44.272Z,65.90
2022-09-12T04:12:11.233Z,65.80
2022-09-12T04:14:38.565Z,65.90
2022-09-12T04:17:05.520Z,66.00
2022-09-12T04:19:32.371Z,66.10
2022-09-12T04:21:59.279Z,66.10
2022-09-12T04:24:26.286Z,66.20
2022-09-12T04:26:53.440Z,66.30
2022-09-12T04:29:20.314Z,66.40
2022-09-12T04:31:47.413Z,66.40
2022-09-12T04:34:15.956Z,66.40
2022-09-12T04:36:42.839Z,66.40
2022-09-12T04:39:11.436Z,66.50
2022-09-12T04:41:39.855Z,66.60
2022-09-12T04:44:14.265Z,66.60
2022-09-12T04:46:44.630Z,66.60
2022-09-12T04:49:13.210Z,66.60
2022-09-12T04:51:41.939Z,66.70
2022-09-12T04:54:12.550Z,66.60
2022-09-12T04:56:42.006Z,66.60
2022-09-12T04:59:09.134Z,66.50
2022-09-12T05:01:36.233Z,66.40
2022-09-12T05:04:03.779Z,66.40
2022-09-12T05:06:34.965Z,66.50
2022-09-12T05:09:03.998Z,66.50
2022-09-12T05:12:00.067Z,66.40
2022-09-12T05:14:20.118Z,66.50
2022-09-12T05:16:49.584Z,66.50
2022-09-12T05:19:17.144Z,66.50
2022-09-12T05:21:44.055Z,66.50
2022-09-12T05:24:11.502Z,66.50
2022-09-12T05:26:38.498Z,66.50
2022-09-12T05:29:06.127Z,66.40
2022-09-12T05:31:33.343Z,66.50
2022-09-12T05:34:00.396Z,66.60
2022-09-12T05:36:30.902Z,66.60
2022-09-12T05:38:59.573Z,66.60
2022-09-12T05:41:30.748Z,66.60
2022-09-12T05:44:03.745Z,66.50
2022-09-12T05:46:36.123Z,66.50
2022-09-12T05:49:05.293Z,66.60
2022-09-12T05:51:34.571Z,66.50
2022-09-12T05:54:03.449Z,66.60
2022-09-12T05:56:33.599Z,66.70
2022-09-12T05:59:03.264Z,66.60
2022-09-12T06:01:31.890Z,66.60
2022-09-12T06:04:00.977Z,66.60
2022-09-12T06:06:29.919Z,66.60
2022-09-12T06:08:59.708Z,66.70
2022-09-12T06:11:29.068Z,66.70
2022-09-12T06:13:57.504Z,66.70
2022-09-12T06:16:26.775Z,66.60
2022-09-12T06:18:56.967Z,66.60
2022-09-12T06:21:26.498Z,66.60
2022-09-12T06:23:58.735Z,66.70
2022-09-12T06:26:26.193Z,66.80
2022-09-12T06:28:54.757Z,66.90
2022-09-12T06:31:25.167Z,66.90
2022-09-12T06:33:53.447Z,67.00
2022-09-12T06:36:26.432Z,67.10
2022-09-12T06:39:01.047Z,67.20
2022-09-12T06:41:29.501Z,67.20
2022-09-12T06:43:57.035Z,67.30
2022-09-12T06:46:24.479Z,67.30
2022-09-12T06:48:51.564Z,67.30
2022-09-12T06:51:20.134Z,67.30
2022-09-12T06:53:48.220Z,67.40
2022-09-12T06:56:26.594Z,67.50
2022-09-12T06:58:55.525Z,67.60
2022-09-12T07:01:28.129Z,67.50
2022-09-12T07:03:57.720Z,67.60
2022-09-12T07:06:31.488Z,67.70
2022-09-12T07:08:59.561Z,67.80
2022-09-12T07:11:28.817Z,67.80
2022-09-12T07:13:56.666Z,67.80
2022-09-12T07:16:27.061Z,67.90
2022-09-12T07:18:56.060Z,68.00
2022-09-12T07:21:23.446Z,67.90
2022-09-12T07:23:51.965Z,67.90
2022-09-12T07:26:18.963Z,67.80
2022-09-12T07:28:50.508Z,67.80
2022-09-12T07:31:19.246Z,67.70
2022-09-12T07:33:47.491Z,67.80
2022-09-12T07:36:17.552Z,68.00
2022-09-12T07:38:45.070Z,67.80
2022-09-12T07:41:20.855Z,67.70
2022-09-12T07:43:48.468Z,67.70
2022-09-12T07:46:15.375Z,67.80
2022-09-12T07:48:42.279Z,67.70
2022-09-12T07:51:11.163Z,67.70
2022-09-12T07:53:40.509Z,67.60
2022-09-12T07:56:10.362Z,67.60
2022-09-12T07:58:38.558Z,67.50
2022-09-12T08:01:08.825Z,67.30
2022-09-12T08:03:39.566Z,67.30
2022-09-12T08:06:08.622Z,67.10
2022-09-12T08:08:36.164Z,66.80
2022-09-12T08:11:06.022Z,66.70
2022-09-12T08:13:36.724Z,66.40
2022-09-12T08:16:06.596Z,66.20
2022-09-12T08:18:35.713Z,66.00
2022-09-12T08:21:05.577Z,65.90
2022-09-12T08:23:32.843Z,65.70
2022-09-12T08:26:05.302Z,65.50
2022-09-12T08:28:34.660Z,65.30
2022-09-12T08:31:09.251Z,65.20
2022-09-12T08:33:36.093Z,65.00
2022-09-12T08:36:21.267Z,64.70
2022-09-12T08:38:50.529Z,64.50
2022-09-12T08:41:35.559Z,64.10
2022-09-12T08:44:59.931Z,64.10
2022-09-12T08:47:47.013Z,64.10
2022-09-12T08:50:20.603Z,63.80
2022-09-12T08:52:58.559Z,63.40
2022-09-12T08:55:35.004Z,63.30
2022-09-12T08:58:17.127Z,62.80
2022-09-12T09:01:07.591Z,62.40
2022-09-12T09:03:48.334Z,62.00
2022-09-12T09:06:36.285Z,61.60
2022-09-12T09:09:24.650Z,61.70
2022-09-12T09:12:09.977Z,61.30
2022-09-12T09:14:50.314Z,61.20
2022-09-12T09:17:25.192Z,61.00
2022-09-12T09:20:03.135Z,60.60
2022-09-12T09:22:55.603Z,60.40
2022-09-12T09:25:30.175Z,60.30
2022-09-12T09:28:03.772Z,60.00
2022-09-12T09:30:31.796Z,59.60
2022-09-12T09:33:01.947Z,59.40
2022-09-12T09:35:46.659Z,59.00
2022-09-12T09:38:36.191Z,58.50
2022-09-12T09:41:18.809Z,58.20
2022-09-12T09:43:45.719Z,57.30
2022-09-12T09:46:14.243Z,57.10
2022-09-12T09:48:47.406Z,56.90
2022-09-12T09:51:21.351Z,56.80
2022-09-12T09:53:54.931Z,56.60
2022-09-12T09:56:42.509Z,56.90
2022-09-12T09:59:11.954Z,56.80
2022-09-12T10:02:13.696Z,56.60
2022-09-12T10:04:52.794Z,56.10
2022-09-12T10:07:21.695Z,55.60
2022-09-12T10:10:24.080Z,55.10
2022-09-12T10:12:51.370Z,54.50
2022-09-12T10:15:26.543Z,54.50
2022-09-12T10:17:55.714Z,54.30
2022-09-12T10:20:42.014Z,54.00
2022-09-12T10:23:37.831Z,53.20
2022-09-12T10:26:10.554Z,52.80
2022-09-12T10:28:48.026Z,52.70
2022-09-12T10:31:24.151Z,52.90
2022-09-12T10:33:52.870Z,52.60
2022-09-12T10:36:20.766Z,51.90
2022-09-12T10:39:00.862Z,52.00
2022-09-12T10:41:39.764Z,51.50
2022-09-12T10:44:17.032Z,51.40
2022-09-12T10:46:44.624Z,50.70
2022-09-12T10:49:28.457Z,51.10
2022-09-12T10:51:56.978Z,50.60
2022-09-12T10:54:26.730Z,50.80
2022-09-12T10:57:21.572Z,50.40
2022-09-12T11:00:17.978Z,49.60
2022-09-12T11:03:02.618Z,49.30
2022-09-12T11:05:49.281Z,49.40
2022-09-12T11:08:24.687Z,49.30
2022-09-12T11:11:06.272Z,49.20
2022-09-12T11:13:57.693Z,48.50
2022-09-12T11:16:51.618Z,48.10
2022-09-12T11:19:25.188Z,47.90
2022-09-12T11:21:57.825Z,47.60
2022-09-12T11:24:27.333Z,47.60
2022-09-12T11:27:31.689Z,47.20
2022-09-12T11:30:12.834Z,47.10
2022-09-12T11:32:59.918Z,47.00
2022-09-12T11:35:31.181Z,46.50
2022-09-12T11:38:10.995Z,46.50
2022-09-12T11:40:54.504Z,46.20
2022-09-12T11:43:46.513Z,46.20
2022-09-12T11:46:39.311Z,46.10
2022-09-12T11:49:26.510Z,45.70
2022-09-12T11:52:22.718Z,46.20
2022-09-12T11:55:24.753Z,45.90
2022-09-12T11:57:58.640Z,45.90
2022-09-12T12:00:38.285Z,46.00
2022-09-12T12:03:12.482Z,45.40
2022-09-12T12:05:52.122Z,44.80
2022-09-12T12:08:20.680Z,44.20
2022-09-12T12:10:58.321Z,44.40
2022-09-12T12:13:39.314Z,44.10
2022-09-12T12:16:14.622Z,44.00
2022-09-12T12:18:43.801Z,44.10
2022-09-12T12:21:29.343Z,43.60
2022-09-12T12:24:04.840Z,43.10
2022-09-12T12:26:40.622Z,43.00
2022-09-12T12:29:43.391Z,42.70
2022-09-12T12:32:10.696Z,42.20
2022-09-12T12:34:45.150Z,42.40
2022-09-12T12:37:21.015Z,42.40
2022-09-12T12:39:51.449Z,42.60
2022-09-12T12:42:33.388Z,42.80
2022-09-12T12:45:10.195Z,42.80
2022-09-12T12:47:42.174Z,42.00
2022-09-12T12:50:19.510Z,41.70
2022-09-12T12:52:56.868Z,41.40
2022-09-12T12:55:45.471Z,41.70
2022-09-12T12:58:28.703Z,41.90
2022-09-12T13:01:13.415Z,41.60
2022-09-12T13:04:04.635Z,41.50
2022-09-12T13:06:36.016Z,41.30
2022-09-12T13:09:06.842Z,41.00
2022-09-12T13:11:36.943Z,41.10
2022-09-12T13:14:07.137Z,41.00
2022-09-12T13:16:54.816Z,40.50
2022-09-12T13:19:33.064Z,40.50
2022-09-12T13:22:08.575Z,40.70
2022-09-12T13:24:44.629Z,40.30
2022-09-12T13:27:19.453Z,39.80
2022-09-12T13:29:46.758Z,40.10
2022-09-12T13:32:15.196Z,40.10
2022-09-12T13:35:02.476Z,39.60
2022-09-12T13:37:57.350Z,39.50
2022-09-12T13:40:40.659Z,39.40
2022-09-12T13:43:20.671Z,39.40
2022-09-12T13:45:48.237Z,39.20
2022-09-12T13:48:24.131Z,39.20
2022-09-12T13:50:52.957Z,39.40
2022-09-12T13:53:25.883Z,39.40
2022-09-12T13:55:58.041Z,39.30
2022-09-12T13:58:29.696Z,38.90
2022-09-12T14:01:12.093Z,39.00
2022-09-12T14:04:00.065Z,38.40
2022-09-12T14:06:27.793Z,38.50
2022-09-12T14:09:01.377Z,39.00
2022-09-12T14:11:30.711Z,38.80
2022-09-12T14:14:06.843Z,38.30
2022-09-12T14:16:41.770Z,38.60
2022-09-12T14:19:12.335Z,38.70
2022-09-12T14:21:39.222Z,38.80
2022-09-12T14:24:08.543Z,38.70
2022-09-12T14:26:39.003Z,38.90
2022-09-12T14:29:07.245Z,39.10
2022-09-12T14:31:39.427Z,39.00
2022-09-12T14:34:19.475Z,38.70
2022-09-12T14:36:52.880Z,38.60
2022-09-12T14:39:25.199Z,38.60
2022-09-12T14:42:02.929Z,38.50
2022-09-12T14:44:32.023Z,38.20
2022-09-12T14:47:13.526Z,38.20
2022-09-12T14:49:42.229Z,38.20
2022-09-12T14:52:33.513Z,38.10
2022-09-12T14:55:20.234Z,38.10
2022-09-12T14:57:48.096Z,38.30
2022-09-12T15:00:22.293Z,38.70
2022-09-12T15:02:50.786Z,38.90
2022-09-12T15:05:24.132Z,38.80
2022-09-12T15:07:51.102Z,39.20
2022-09-12T15:10:25.211Z,39.00
2022-09-12T15:13:14.289Z,39.20
2022-09-12T15:15:47.178Z,39.10
2022-09-12T15:18:14.838Z,38.80
2022-09-12T15:20:43.923Z,38.70
2022-09-12T15:23:20.688Z,39.00
2022-09-12T15:25:47.602Z,38.90
2022-09-12T15:28:20.422Z,39.10
2022-09-12T15:30:50.582Z,39.20
2022-09-12T15:33:21.500Z,39.40
2022-09-12T15:35:51.551Z,39.50
2022-09-12T15:38:27.704Z,39.00
2022-09-12T15:41:03.428Z,38.80
2022-09-12T15:43:32.448Z,39.10
2022-09-12T15:46:04.531Z,39.20
2022-09-12T15:48:35.582Z,38.90
2022-09-12T15:51:05.342Z,39.00
2022-09-12T15:53:33.376Z,39.00
2022-09-12T15:56:05.395Z,38.80
2022-09-12T15:58:36.494Z,38.80
2022-09-12T16:01:05.999Z,39.00
2022-09-12T16:03:33.964Z,39.20
2022-09-12T16:06:06.115Z,39.20
2022-09-12T16:08:34.771Z,39.20
2022-09-12T16:11:15.544Z,39.50
2022-09-12T16:13:43.619Z,39.30
2022-09-12T16:16:20.746Z,39.70
2022-09-12T16:18:47.958Z,40.20
2022-09-12T16:21:15.768Z,40.30
2022-09-12T16:23:44.111Z,40.40
2022-09-12T16:26:17.865Z,40.40
2022-09-12T16:29:10.264Z,40.30
2022-09-12T16:31:40.384Z,40.20
2022-09-12T16:34:11.383Z,40.40
2022-09-12T16:36:45.526Z,40.60
2022-09-12T16:39:15.485Z,40.70
2022-09-12T16:41:44.212Z,40.80
2022-09-12T16:44:13.792Z,40.90
2022-09-12T16:46:43.470Z,41.00
2022-09-12T16:49:13.729Z,41.20
2022-09-12T16:51:47.468Z,41.30
2022-09-12T16:54:19.138Z,41.50
2022-09-12T16:56:50.907Z,41.60
2022-09-12T16:59:22.773Z,41.80
2022-09-12T17:01:54.399Z,42.00
2022-09-12T17:04:30.877Z,42.20
2022-09-12T17:06:59.529Z,42.30
2022-09-12T17:09:30.620Z,42.50
2022-09-12T17:12:02.630Z,42.70
2022-09-12T17:14:34.173Z,43.00
2022-09-12T17:17:03.836Z,43.00
2022-09-12T17:19:38.507Z,43.10
2022-09-12T17:22:08.844Z,43.10
2022-09-12T17:24:42.148Z,43.10
2022-09-12T17:27:12.420Z,43.10
2022-09-12T17:29:44.498Z,43.20
2022-09-12T17:32:17.641Z,43.40
2022-09-12T17:34:48.367Z,43.60
2022-09-12T17:37:19.046Z,43.70
2022-09-12T17:39:51.996Z,43.90
2022-09-12T17:42:24.680Z,44.10
2022-09-12T17:44:58.450Z,44.30
2022-09-12T17:47:28.215Z,44.40
2022-09-12T17:50:14.799Z,44.40
2022-09-12T17:52:51.164Z,44.50
2022-09-12T17:55:21.112Z,44.70
2022-09-12T17:57:49.081Z,44.80
2022-09-12T18:00:16.223Z,44.90
2022-09-12T18:02:44.298Z,45.20
2022-09-12T18:05:11.079Z,45.20
2022-09-12T18:07:43.481Z,45.40
2022-09-12T18:10:11.989Z,45.50
2022-09-12T18:12:38.732Z,45.60
2022-09-12T18:15:06.947Z,45.60
2022-09-12T18:17:33.813Z,45.70
2022-09-12T18:20:01.079Z,45.80
2022-09-12T18:22:27.848Z,45.80
2022-09-12T18:24:54.609Z,45.90
2022-09-12T18:27:21.629Z,46.10
2022-09-12T18:30:04.180Z,46.50
2022-09-12T18:32:35.438Z,46.80
2022-09-12T18:35:02.703Z,47.00
2022-09-12T18:37:29.803Z,47.20
2022-09-12T18:39:57.797Z,47.40
2022-09-12T18:42:25.218Z,47.50
2022-09-12T18:44:51.964Z,47.60
2022-09-12T18:47:19.024Z,47.80
2022-09-12T18:49:46.396Z,47.90
2022-09-12T18:52:15.292Z,48.10
2022-09-12T18:54:42.176Z,48.10
2022-09-12T18:57:09.018Z,48.20
2022-09-12T18:59:35.947Z,48.40
2022-09-12T19:02:03.285Z,48.50
2022-09-12T19:04:30.196Z,48.50
2022-09-12T19:06:57.169Z,48.70
2022-09-12T19:09:24.104Z,48.60
2022-09-12T19:11:52.697Z,48.70
2022-09-12T19:14:22.857Z,48.80
2022-09-12T19:16:50.872Z,48.90
2022-09-12T19:19:18.460Z,48.90
2022-09-12T19:21:46.205Z,48.80
2022-09-12T19:24:14.488Z,48.90
2022-09-12T19:26:41.807Z,49.00
2022-09-12T19:29:08.655Z,49.00
2022-09-12T19:31:35.667Z,49.10
2022-09-12T19:34:05.333Z,49.20
2022-09-12T19:36:44.989Z,49.30
2022-09-12T19:39:13.853Z,49.40
2022-09-12T19:41:41.086Z,49.40
2022-09-12T19:44:09.717Z,49.30
2022-09-12T19:46:38.444Z,49.40
2022-09-12T19:49:11.985Z,49.50
2022-09-12T19:51:41.574Z,49.50
2022-09-12T19:54:13.255Z,49.70
2022-09-12T19:56:47.152Z,49.90
2022-09-12T19:59:14.989Z,50.10
2022-09-12T20:01:50.343Z,50.20
2022-09-12T20:04:27.019Z,50.40
2022-09-12T20:06:54.417Z,50.60
2022-09-12T20:09:21.183Z,50.70
2022-09-12T20:11:48.130Z,50.70
2022-09-12T20:14:14.975Z,50.70
2022-09-12T20:16:41.851Z,50.80
2022-09-12T20:19:09.729Z,51.00
2022-09-12T20:21:36.993Z,51.10
2022-09-12T20:24:10.144Z,51.20
2022-09-12T20:26:37.250Z,51.30
2022-09-12T20:29:05.352Z,51.40
2022-09-12T20:31:33.545Z,51.50
2022-09-12T20:34:00.526Z,51.70
2022-09-12T20:36:27.486Z,51.80
2022-09-12T20:38:56.993Z,51.80
2022-09-12T20:41:24.997Z,51.90
2022-09-12T20:43:53.921Z,52.00
2022-09-12T20:46:22.618Z,52.10
2022-09-12T20:48:50.778Z,52.10
2022-09-12T20:51:18.935Z,52.10
2022-09-12T20:53:45.737Z,52.20
2022-09-12T20:56:12.617Z,52.30
2022-09-12T20:58:43.165Z,52.40
2022-09-12T21:01:12.010Z,52.40
2022-09-12T21:03:40.629Z,52.60
2022-09-12T21:06:08.982Z,52.70
2022-09-12T21:08:37.152Z,52.90
2022-09-12T21:11:05.078Z,53.00
2022-09-12T21:13:32.110Z,53.20
2022-09-12T21:16:00.471Z,53.40
2022-09-12T21:18:27.329Z,53.50
2022-09-12T21:20:55.068Z,53.50
2022-09-12T21:23:23.060Z,53.50
2022-09-12T21:25:52.583Z,53.60
2022-09-12T21:28:20.738Z,53.70
2022-09-12T21:30:51.191Z,53.70
2022-09-12T21:33:19.441Z,53.90
2022-09-12T21:35:47.652Z,54.00
2022-09-12T21:38:15.491Z,54.00
2022-09-12T21:40:42.533Z,54.10
2022-09-12T21:43:12.560Z,54.30
2022-09-12T21:45:40.116Z,54.30
2022-09-12T21:48:06.925Z,54.40
2022-09-12T21:50:33.658Z,54.40
2022-09-12T21:53:00.388Z,54.50
2022-09-12T21:55:27.403Z,54.50
2022-09-12T21:57:54.827Z,54.50
2022-09-12T22:00:21.833Z,54.60
2022-09-12T22:02:49.002Z,54.60
2022-09-12T22:05:16.707Z,54.60
2022-09-12T22:07:43.419Z,54.40
2022-09-12T22:10:10.482Z,54.40
2022-09-12T22:12:37.416Z,54.50
2022-09-12T22:15:22.995Z,54.50
2022-09-12T22:17:51.734Z,54.60
2022-09-12T22:20:18.674Z,54.50
2022-09-12T22:23:03.764Z,54.50
2022-09-12T22:25:30.908Z,54.60
2022-09-12T22:27:58.363Z,54.60
2022-09-12T22:30:27.242Z,54.70
2022-09-12T22:32:54.262Z,54.80
2022-09-12T22:35:21.092Z,55.00
2022-09-12T22:37:48.211Z,54.90
2022-09-12T22:40:15.867Z,55.00
2022-09-12T22:42:42.944Z,55.00
2022-09-12T22:45:10.166Z,55.00
2022-09-12T22:47:37.395Z,55.10
2022-09-12T22:50:04.787Z,55.20
2022-09-12T22:52:31.571Z,55.40
2022-09-12T22:54:58.886Z,55.50
2022-09-12T22:57:25.936Z,55.60
2022-09-12T22:59:53.089Z,55.70
2022-09-12T23:02:19.876Z,55.60
2022-09-12T23:04:47.037Z,55.50
2022-09-12T23:07:14.489Z,55.60
2022-09-12T23:09:41.391Z,55.60
2022-09-12T23:12:08.535Z,55.70
2022-09-12T23:14:35.595Z,55.80
2022-09-12T23:17:02.427Z,55.90
2022-09-12T23:19:29.526Z,56.00
2022-09-12T23:21:56.500Z,56.00
2022-09-12T23:24:23.415Z,55.90
2022-09-12T23:26:50.223Z,55.90
2022-09-12T23:29:17.070Z,56.00
2022-09-12T23:31:43.883Z,56.00
2022-09-12T23:34:10.862Z,56.00
2022-09-12T23:36:37.645Z,56.10
2022-09-12T23:39:04.858Z,56.10
2022-09-12T23:41:32.143Z,56.10
2022-09-12T23:43:59.245Z,56.10
2022-09-12T23:46:26.155Z,56.20
2022-09-12T23:48:53.535Z,56.40
2022-09-12T23:51:22.074Z,56.50
2022-09-12T23:53:49.439Z,56.50
2022-09-12T23:56:16.450Z,56.40
2022-09-12T23:58:43.184Z,56.20
